createdAt,value
2017-08-22T00:00:02.706Z,15.21
2017-08-22T00:01:03.151Z,15.33
2017-08-22T00:02:03.583Z,15.35
2017-08-22T00:03:04.012Z,15.27
2017-08-22T00:04:04.440Z,15.35
2017-08-22T00:05:04.875Z,15.29
2017-08-22T00:06:59.071Z,15.31
2017-08-22T00:07:59.514Z,15.18
2017-08-22T00:08:59.947Z,15.19
2017-08-22T00:10:00.380Z,15.18
2017-08-22T00:11:00.814Z,15.15
2017-08-22T00:12:54.017Z,15.28
2017-08-22T00:13:54.460Z,15.28
2017-08-22T00:14:54.890Z,15.25
2017-08-22T00:15:55.324Z,15.27
2017-08-22T00:16:55.752Z,15.22
2017-08-22T00:17:56.186Z,15.33
2017-08-22T00:18:56.616Z,15.25
2017-08-22T00:19:57.056Z,15.27
2017-08-22T00:21:51.263Z,15.29
2017-08-22T00:22:51.692Z,15.25
2017-08-22T00:23:52.122Z,15.28
2017-08-22T00:24:52.561Z,15.21
2017-08-22T00:25:52.986Z,15.18
2017-08-22T00:27:46.197Z,15.22
2017-08-22T00:28:46.628Z,15.29
2017-08-22T00:29:47.061Z,15.27
2017-08-22T00:30:47.497Z,15.29
2017-08-22T00:31:47.929Z,15.21
2017-08-22T00:32:48.358Z,15.27
2017-08-22T00:33:48.792Z,15.24
2017-08-22T00:35:41.997Z,15.27
2017-08-22T00:36:42.435Z,15.19
2017-08-22T00:37:42.871Z,15.22
2017-08-22T00:38:43.306Z,15.22
2017-08-22T00:39:43.735Z,15.21
2017-08-22T00:40:44.167Z,15.18
2017-08-22T00:41:44.605Z,15.24
2017-08-22T00:43:38.793Z,15.28
2017-08-22T00:44:39.234Z,15.15
2017-08-22T00:45:39.667Z,15.22
2017-08-22T00:46:40.099Z,15.15
2017-08-22T00:47:40.534Z,15.21
2017-08-22T00:49:34.732Z,15.15
2017-08-22T00:50:35.174Z,15.06
2017-08-22T00:51:35.604Z,15.21
2017-08-22T00:52:36.033Z,15.11
2017-08-22T00:53:36.468Z,15.09
2017-08-22T00:55:29.677Z,15.21
2017-08-22T00:56:30.156Z,15.15
2017-08-22T00:57:30.552Z,15.07
2017-08-22T00:58:30.984Z,15.06
2017-08-22T00:59:31.408Z,15.02
2017-08-22T01:00:31.844Z,15.06
2017-08-22T01:02:25.058Z,15.04
2017-08-22T01:03:25.496Z,15.00
2017-08-22T01:04:25.928Z,15.09
2017-08-22T01:05:26.361Z,15.02
2017-08-22T01:06:26.787Z,15.03
2017-08-22T01:07:27.218Z,15.04
2017-08-22T01:09:21.419Z,15.04
2017-08-22T01:10:21.852Z,15.02
2017-08-22T01:11:22.293Z,15.04
2017-08-22T01:12:22.717Z,14.97
2017-08-22T01:13:23.149Z,15.02
2017-08-22T01:15:16.357Z,15.03
2017-08-22T01:16:16.798Z,15.03
2017-08-22T01:17:17.233Z,14.88
2017-08-22T01:18:17.665Z,14.96
2017-08-22T01:20:11.851Z,14.92
2017-08-22T01:21:12.294Z,14.89
2017-08-22T01:22:12.723Z,14.89
2017-08-22T01:23:13.162Z,14.84
2017-08-22T01:24:13.614Z,14.82
2017-08-22T01:26:06.792Z,14.84
2017-08-22T01:27:07.247Z,14.81
2017-08-22T01:28:07.668Z,14.73
2017-08-22T01:29:08.094Z,14.70
2017-08-22T01:30:08.523Z,14.79
2017-08-22T01:31:08.959Z,14.72
2017-08-22T01:33:02.194Z,14.72
2017-08-22T01:34:02.608Z,14.59
2017-08-22T01:35:03.043Z,14.65
2017-08-22T01:36:03.471Z,14.66
2017-08-22T01:37:56.686Z,14.69
2017-08-22T01:38:57.128Z,14.59
2017-08-22T01:39:57.560Z,14.65
2017-08-22T01:40:57.992Z,14.68
2017-08-22T01:42:52.179Z,14.68
2017-08-22T01:44:45.388Z,14.53
2017-08-22T01:46:38.600Z,14.55
2017-08-22T01:47:39.041Z,14.59
2017-08-22T01:48:39.475Z,14.60
2017-08-22T01:49:39.909Z,14.58
2017-08-22T01:51:33.116Z,14.54
2017-08-22T01:52:33.554Z,14.50
2017-08-22T01:53:33.989Z,14.51
2017-08-22T01:54:34.421Z,14.45
2017-08-22T01:56:27.640Z,14.48
2017-08-22T01:57:28.084Z,14.51
2017-08-22T01:59:21.273Z,14.40
2017-08-22T02:00:21.711Z,14.44
2017-08-22T02:01:22.142Z,14.36
2017-08-22T02:02:22.575Z,14.36
2017-08-22T02:03:23.011Z,14.40
2017-08-22T02:04:23.435Z,14.36
2017-08-22T02:05:23.872Z,14.33
2017-08-22T02:07:18.065Z,14.36
2017-08-22T02:08:18.502Z,14.30
2017-08-22T02:09:18.937Z,14.35
2017-08-22T02:10:19.368Z,14.30
2017-08-22T02:11:19.793Z,14.33
2017-08-22T02:12:20.234Z,14.33
2017-08-22T02:13:20.658Z,14.25
2017-08-22T02:14:21.090Z,14.18
2017-08-22T02:15:21.522Z,14.23
2017-08-22T02:17:14.732Z,14.25
2017-08-22T02:18:15.166Z,14.28
2017-08-22T02:19:15.600Z,14.22
2017-08-22T02:21:08.827Z,14.20
2017-08-22T02:22:09.254Z,14.23
2017-08-22T02:23:09.684Z,14.17
2017-08-22T02:24:10.117Z,14.22
2017-08-22T02:25:10.544Z,14.18
2017-08-22T02:26:10.973Z,14.11
2017-08-22T02:28:04.186Z,14.07
2017-08-22T02:29:04.641Z,14.10
2017-08-22T02:30:05.058Z,14.10
2017-08-22T02:31:58.290Z,14.04
2017-08-22T02:32:58.706Z,14.12
2017-08-22T02:33:59.144Z,14.11
2017-08-22T02:34:59.569Z,14.14
2017-08-22T02:35:59.999Z,14.07
2017-08-22T02:37:53.214Z,14.05
2017-08-22T02:39:47.405Z,14.11
2017-08-22T02:40:47.845Z,14.11
2017-08-22T02:41:48.279Z,14.10
2017-08-22T02:42:48.706Z,14.11
2017-08-22T02:43:49.141Z,14.10
2017-08-22T02:44:49.565Z,14.03
2017-08-22T02:45:49.996Z,14.12
2017-08-22T02:46:50.430Z,14.12
2017-08-22T02:47:50.864Z,14.05
2017-08-22T02:48:51.293Z,14.05
2017-08-22T02:49:51.728Z,14.05
2017-08-22T02:50:52.152Z,14.03
2017-08-22T02:51:52.582Z,13.93
2017-08-22T02:53:45.790Z,13.97
2017-08-22T02:54:46.233Z,13.96
2017-08-22T02:55:46.659Z,13.96
2017-08-22T02:56:47.100Z,13.96
2017-08-22T02:58:40.299Z,14.00
2017-08-22T02:59:40.738Z,13.90
2017-08-22T03:00:41.170Z,13.90
2017-08-22T03:01:41.600Z,13.92
2017-08-22T03:03:34.798Z,13.93
2017-08-22T03:04:35.238Z,13.95
2017-08-22T03:05:35.669Z,13.96
2017-08-22T03:06:36.102Z,13.93
2017-08-22T03:08:29.306Z,13.86
2017-08-22T03:09:29.743Z,13.79
2017-08-22T03:10:30.174Z,13.81
2017-08-22T03:11:30.604Z,13.87
2017-08-22T03:12:31.037Z,13.96
2017-08-22T03:14:24.235Z,13.87
2017-08-22T03:16:17.484Z,13.96
2017-08-22T03:17:17.927Z,13.97
2017-08-22T03:19:11.125Z,14.05
2017-08-22T03:20:11.574Z,14.05
2017-08-22T03:21:11.996Z,14.10
2017-08-22T03:22:12.433Z,14.08
2017-08-22T03:23:12.857Z,14.05
2017-08-22T03:24:13.294Z,14.15
2017-08-22T03:25:13.721Z,14.08
2017-08-22T03:27:06.927Z,14.03
2017-08-22T03:28:07.370Z,14.14
2017-08-22T03:29:07.801Z,14.11
2017-08-22T03:30:08.230Z,14.07
2017-08-22T03:32:02.444Z,14.08
2017-08-22T03:33:02.864Z,14.03
2017-08-22T03:34:03.295Z,14.08
2017-08-22T03:35:56.498Z,14.10
2017-08-22T03:36:56.933Z,14.07
2017-08-22T03:37:57.371Z,14.10
2017-08-22T03:38:57.803Z,14.05
2017-08-22T03:40:51.008Z,13.97
2017-08-22T03:41:51.452Z,13.96
2017-08-22T03:42:51.895Z,13.97
2017-08-22T03:44:45.093Z,13.99
2017-08-22T03:45:45.532Z,13.93
2017-08-22T03:46:45.960Z,13.92
2017-08-22T03:47:46.393Z,13.93
2017-08-22T03:49:39.602Z,14.04
2017-08-22T03:50:40.049Z,13.99
2017-08-22T03:51:40.476Z,13.95
2017-08-22T03:53:33.693Z,13.89
2017-08-22T03:54:34.127Z,13.93
2017-08-22T03:55:34.564Z,13.96
2017-08-22T03:56:34.994Z,14.00
2017-08-22T03:57:35.426Z,13.93
2017-08-22T03:59:32.616Z,13.96
2017-08-22T04:00:33.036Z,13.96
2017-08-22T04:02:27.219Z,13.96
2017-08-22T04:04:20.430Z,13.96
2017-08-22T04:05:20.872Z,13.90
2017-08-22T04:06:21.301Z,13.90
2017-08-22T04:07:21.727Z,13.90
2017-08-22T04:08:22.169Z,13.93
2017-08-22T04:10:16.349Z,13.87
2017-08-22T04:11:16.787Z,13.93
2017-08-22T04:12:17.217Z,13.83
2017-08-22T04:13:17.649Z,13.81
2017-08-22T04:15:10.858Z,13.83
2017-08-22T04:16:11.320Z,13.81
2017-08-22T04:17:11.727Z,13.83
2017-08-22T04:18:12.165Z,13.90
2017-08-22T04:20:05.378Z,13.81
2017-08-22T04:21:05.800Z,13.79
2017-08-22T04:22:06.229Z,13.83
2017-08-22T04:23:06.662Z,13.78
2017-08-22T04:24:07.094Z,13.87
2017-08-22T04:26:01.286Z,13.83
2017-08-22T04:27:01.726Z,13.89
2017-08-22T04:28:02.156Z,13.79
2017-08-22T04:29:02.586Z,13.85
2017-08-22T04:30:55.799Z,13.70
2017-08-22T04:31:56.221Z,13.79
2017-08-22T04:32:56.672Z,13.89
2017-08-22T04:33:57.082Z,13.78
2017-08-22T04:34:57.517Z,13.83
2017-08-22T04:36:50.718Z,13.81
2017-08-22T04:37:51.161Z,13.83
2017-08-22T04:38:51.583Z,13.71
2017-08-22T04:39:52.014Z,13.75
2017-08-22T04:41:46.209Z,13.81
2017-08-22T04:42:46.653Z,13.83
2017-08-22T04:43:47.082Z,13.87
2017-08-22T04:44:47.524Z,13.89
2017-08-22T04:46:40.715Z,13.87
2017-08-22T04:47:41.154Z,13.95
2017-08-22T04:48:41.585Z,13.87
2017-08-22T04:49:42.016Z,13.87
2017-08-22T04:51:35.243Z,13.90
2017-08-22T04:52:35.668Z,13.87
2017-08-22T04:53:36.097Z,13.97
2017-08-22T04:54:36.526Z,13.96
2017-08-22T04:55:36.954Z,13.90
2017-08-22T04:56:37.394Z,13.89
2017-08-22T04:58:30.596Z,13.90
2017-08-22T04:59:31.035Z,13.95
2017-08-22T05:00:31.463Z,13.95
2017-08-22T05:01:31.900Z,13.96
2017-08-22T05:03:25.108Z,13.93
2017-08-22T05:04:25.555Z,13.96
2017-08-22T05:05:25.983Z,14.05
2017-08-22T05:07:19.198Z,14.04
2017-08-22T05:08:19.629Z,14.14
2017-08-22T05:09:20.062Z,13.93
2017-08-22T05:11:13.263Z,13.97
2017-08-22T05:12:13.714Z,13.96
2017-08-22T05:13:14.137Z,14.04
2017-08-22T05:14:14.563Z,13.96
2017-08-22T05:15:14.997Z,14.00
2017-08-22T05:16:15.428Z,14.07
2017-08-22T05:17:15.862Z,14.07
2017-08-22T05:19:09.072Z,14.22
2017-08-22T05:20:09.510Z,14.10
2017-08-22T05:21:09.938Z,14.07
2017-08-22T05:22:10.370Z,14.11
2017-08-22T05:23:10.799Z,14.28
2017-08-22T05:25:04.009Z,14.10
2017-08-22T05:26:04.460Z,14.11
2017-08-22T05:27:04.877Z,14.22
2017-08-22T05:28:05.317Z,14.18
2017-08-22T05:29:58.521Z,14.25
2017-08-22T05:30:58.958Z,14.22
2017-08-22T05:31:59.389Z,14.22
2017-08-22T05:32:59.827Z,14.30
2017-08-22T05:34:54.037Z,14.30
2017-08-22T05:35:54.473Z,14.35
2017-08-22T05:36:54.964Z,14.44
2017-08-22T05:37:55.323Z,14.33
2017-08-22T05:39:49.519Z,14.37
2017-08-22T05:40:49.959Z,14.33
2017-08-22T05:41:50.397Z,14.41
2017-08-22T05:42:50.822Z,14.45
2017-08-22T05:43:51.252Z,14.58
2017-08-22T05:44:51.682Z,14.45
2017-08-22T05:46:44.902Z,14.70
2017-08-22T05:47:45.332Z,14.60
2017-08-22T05:48:45.763Z,14.65
2017-08-22T05:49:46.191Z,14.66
2017-08-22T05:51:39.405Z,14.63
2017-08-22T05:52:39.849Z,14.62
2017-08-22T05:53:40.278Z,14.63
2017-08-22T05:54:40.712Z,14.73
2017-08-22T05:55:41.145Z,14.68
2017-08-22T05:56:41.578Z,14.79
2017-08-22T05:57:42.008Z,14.81
2017-08-22T05:58:42.441Z,14.69
2017-08-22T05:59:42.885Z,14.72
2017-08-22T06:00:43.308Z,14.82
2017-08-22T06:01:43.740Z,14.79
2017-08-22T06:02:44.172Z,14.70
2017-08-22T06:03:44.606Z,14.81
2017-08-22T06:05:37.809Z,15.00
2017-08-22T06:06:38.256Z,15.03
2017-08-22T06:07:38.687Z,15.14
2017-08-22T06:08:39.116Z,14.97
2017-08-22T06:09:39.557Z,15.03
2017-08-22T06:10:39.985Z,15.03
2017-08-22T06:11:40.420Z,14.91
2017-08-22T06:12:40.852Z,15.07
2017-08-22T06:13:41.283Z,15.09
2017-08-22T06:14:52.631Z,14.97
2017-08-22T06:17:50.020Z,14.97
2017-08-22T06:26:55.030Z,15.36
2017-08-22T06:29:49.830Z,15.40
2017-08-22T06:31:48.174Z,15.55
2017-08-22T06:38:05.788Z,15.39
2017-08-22T06:40:08.915Z,15.52
2017-08-22T06:41:09.387Z,15.51
2017-08-22T06:44:14.678Z,15.51
2017-08-22T06:49:14.220Z,15.65
2017-08-22T06:50:14.654Z,15.70
2017-08-22T06:57:28.416Z,15.88
2017-08-22T06:58:28.862Z,15.97
2017-08-22T06:59:50.460Z,16.13
2017-08-22T07:04:28.709Z,16.31
2017-08-22T07:08:35.337Z,16.47
2017-08-22T07:09:35.779Z,16.64
2017-08-22T07:12:27.586Z,16.96
2017-08-22T07:13:10.572Z,17.31
2017-08-22T07:15:44.354Z,17.57
2017-08-22T07:17:37.599Z,18.13
2017-08-22T07:18:38.030Z,18.22
2017-08-22T07:19:38.465Z,17.65
2017-08-22T07:20:38.906Z,17.52
2017-08-22T07:22:32.163Z,17.63
2017-08-22T07:23:32.592Z,17.67
2017-08-22T07:24:33.037Z,17.44
2017-08-22T07:26:26.250Z,17.04
2017-08-22T07:27:26.712Z,17.36
2017-08-22T07:28:27.137Z,17.56
2017-08-22T07:30:20.404Z,17.23
2017-08-22T07:31:20.846Z,17.24
2017-08-22T07:35:27.769Z,17.85
2017-08-22T07:36:27.933Z,17.83
2017-08-22T07:37:28.369Z,18.03
2017-08-22T07:39:22.626Z,17.83
2017-08-22T07:41:56.181Z,18.99
2017-08-22T07:42:56.600Z,18.47
2017-08-22T07:43:57.045Z,18.78
2017-08-22T07:44:57.490Z,19.07
2017-08-22T07:46:50.727Z,19.08
2017-08-22T07:47:51.184Z,18.80
2017-08-22T07:48:51.626Z,19.22
2017-08-22T07:52:17.962Z,19.70
2017-08-22T07:53:18.424Z,19.63
2017-08-22T07:55:11.662Z,20.41
2017-08-22T07:57:45.247Z,19.40
2017-08-22T07:59:06.874Z,19.52
2017-08-22T07:59:46.171Z,20.55
2017-08-22T08:01:39.404Z,19.96
2017-08-22T08:02:39.897Z,19.52
2017-08-22T08:03:55.197Z,19.82
2017-08-22T08:04:40.762Z,19.81
2017-08-22T08:06:39.263Z,19.84
2017-08-22T08:10:00.415Z,19.29
2017-08-22T08:13:26.771Z,19.41
2017-08-22T08:16:53.132Z,19.09
2017-08-22T08:17:53.603Z,19.26
2017-08-22T08:18:54.036Z,19.64
2017-08-22T08:19:54.545Z,19.82
2017-08-22T08:21:47.717Z,18.65
2017-08-22T08:22:48.175Z,18.53
2017-08-22T08:23:48.617Z,18.37
2017-08-22T08:24:49.061Z,18.43
2017-08-22T08:25:49.506Z,17.76
2017-08-22T08:27:43.770Z,17.80
2017-08-22T08:28:44.188Z,17.83
2017-08-22T08:29:44.623Z,17.74
2017-08-22T08:31:38.833Z,17.98
2017-08-22T08:32:39.281Z,17.92
2017-08-22T08:33:40.617Z,17.72
2017-08-22T08:34:40.167Z,17.48
2017-08-22T08:35:40.621Z,17.38
2017-08-22T08:37:33.840Z,17.65
2017-08-22T08:38:34.283Z,18.00
2017-08-22T08:39:34.742Z,17.97
2017-08-22T08:41:27.953Z,17.85
2017-08-22T08:42:28.394Z,18.00
2017-08-22T08:43:28.838Z,17.80
2017-08-22T08:44:29.273Z,17.85
2017-08-22T08:45:29.725Z,17.79
2017-08-22T08:46:30.155Z,18.05
2017-08-22T08:47:30.603Z,18.03
2017-08-22T08:48:31.033Z,18.05
2017-08-22T08:49:31.473Z,18.08
2017-08-22T08:50:31.923Z,18.22
2017-08-22T08:51:32.360Z,18.22
2017-08-22T08:53:25.584Z,17.79
2017-08-22T08:54:26.029Z,18.33
2017-08-22T08:55:26.474Z,18.25
2017-08-22T08:56:26.914Z,18.10
2017-08-22T08:58:20.135Z,17.71
2017-08-22T08:59:20.592Z,17.74
2017-08-22T09:00:21.032Z,17.68
2017-08-22T09:01:21.472Z,18.03
2017-08-22T09:03:14.704Z,17.80
2017-08-22T09:04:15.155Z,17.63
2017-08-22T09:06:08.391Z,17.87
2017-08-22T09:07:08.830Z,18.07
2017-08-22T09:08:09.260Z,18.03
2017-08-22T09:09:09.712Z,18.13
2017-08-22T09:11:02.934Z,17.86
2017-08-22T09:12:03.385Z,17.63
2017-08-22T09:13:03.821Z,17.63
2017-08-22T09:14:57.049Z,17.64
2017-08-22T09:15:57.496Z,17.67
2017-08-22T09:16:57.936Z,17.83
2017-08-22T09:17:58.375Z,17.48
2017-08-22T09:19:51.598Z,17.46
2017-08-22T09:20:52.075Z,17.72
2017-08-22T09:21:55.347Z,17.76
2017-08-22T09:22:52.927Z,17.86
2017-08-22T09:24:47.143Z,17.74
2017-08-22T09:25:47.598Z,17.86
2017-08-22T09:26:48.038Z,17.71
2017-08-22T09:28:41.273Z,18.26
2017-08-22T09:29:41.748Z,18.22
2017-08-22T09:31:34.937Z,18.01
2017-08-22T09:32:35.383Z,18.08
2017-08-22T09:33:35.825Z,18.22
2017-08-22T09:34:36.268Z,18.26
2017-08-22T09:35:36.707Z,18.78
2017-08-22T09:38:11.241Z,18.90
2017-08-22T09:39:11.694Z,19.02
2017-08-22T09:40:12.137Z,19.14
2017-08-22T09:42:18.683Z,19.33
2017-08-22T09:43:05.806Z,19.39
2017-08-22T09:45:39.408Z,19.64
2017-08-22T09:47:53.783Z,19.82
2017-08-22T09:48:33.089Z,19.63
2017-08-22T09:49:33.523Z,19.85
2017-08-22T09:50:33.978Z,19.08
2017-08-22T09:51:34.408Z,19.70
2017-08-22T09:53:27.666Z,20.13
2017-08-22T09:55:20.879Z,19.45
2017-08-22T09:56:21.351Z,18.89
2017-08-22T09:57:21.783Z,18.84
2017-08-22T09:58:25.160Z,18.95
2017-08-22T10:00:16.459Z,18.47
2017-08-22T10:01:16.914Z,18.45
2017-08-22T10:02:17.368Z,18.77
2017-08-22T10:04:10.610Z,18.73
2017-08-22T10:05:11.066Z,18.81
2017-08-22T10:06:11.490Z,18.95
2017-08-22T10:07:11.930Z,19.08
2017-08-22T10:08:12.377Z,19.33
2017-08-22T10:09:12.823Z,19.33
2017-08-22T10:11:06.102Z,18.86
2017-08-22T10:12:06.516Z,18.80
2017-08-22T10:13:06.958Z,18.95
2017-08-22T10:14:07.397Z,19.21
2017-08-22T10:16:00.641Z,19.70
2017-08-22T10:17:01.090Z,20.13
2017-08-22T10:18:54.320Z,20.07
2017-08-22T10:19:54.771Z,21.03
2017-08-22T10:20:55.220Z,21.58
2017-08-22T10:21:55.660Z,21.62
2017-08-22T10:22:56.110Z,21.67
2017-08-22T10:24:49.337Z,20.39
2017-08-22T10:25:49.789Z,20.78
2017-08-22T10:26:50.240Z,20.29
2017-08-22T10:27:50.688Z,20.00
2017-08-22T10:28:51.133Z,20.14
2017-08-22T10:30:15.596Z,20.10
2017-08-22T10:30:52.039Z,20.29
2017-08-22T10:32:45.259Z,19.95
2017-08-22T10:33:45.724Z,19.73
2017-08-22T10:34:46.165Z,19.44
2017-08-22T10:35:46.610Z,19.63
2017-08-22T10:37:39.859Z,19.52
2017-08-22T10:38:40.304Z,19.70
2017-08-22T10:39:40.761Z,19.84
2017-08-22T10:40:41.201Z,19.94
2017-08-22T10:42:34.458Z,19.31
2017-08-22T10:43:34.902Z,19.00
2017-08-22T10:44:42.181Z,18.84
2017-08-22T10:48:04.955Z,18.88
2017-08-22T10:50:30.228Z,18.34
2017-08-22T10:50:55.402Z,18.23
2017-08-22T10:52:48.633Z,18.31
2017-08-22T10:55:22.489Z,18.74
2017-08-22T10:56:58.448Z,18.74
2017-08-22T10:57:23.084Z,18.41
2017-08-22T10:59:16.300Z,18.45
2017-08-22T11:00:21.590Z,18.60
2017-08-22T11:01:17.192Z,18.59
2017-08-22T11:02:17.632Z,18.53
2017-08-22T11:03:18.069Z,18.90
2017-08-22T11:04:33.055Z,18.81
2017-08-22T11:06:20.008Z,18.77
2017-08-22T11:10:07.863Z,18.41
2017-08-22T11:10:39.524Z,18.41
2017-08-22T11:12:01.121Z,18.37
2017-08-22T11:13:44.052Z,18.37
2017-08-22T11:14:54.794Z,18.35
2017-08-22T11:15:34.068Z,18.33
2017-08-22T11:16:34.509Z,18.44
2017-08-22T11:18:27.825Z,18.44
2017-08-22T11:20:22.109Z,18.26
2017-08-22T11:22:16.078Z,18.11
2017-08-22T11:23:15.753Z,18.04
2017-08-22T11:24:23.058Z,18.19
2017-08-22T11:26:17.176Z,18.22
2017-08-22T11:28:42.966Z,18.34
2017-08-22T11:29:46.222Z,18.34
2017-08-22T11:31:36.637Z,18.43
2017-08-22T11:32:37.079Z,18.33
2017-08-22T11:33:37.521Z,18.35
2017-08-22T11:34:37.959Z,18.34
2017-08-22T11:36:31.180Z,18.50
2017-08-22T11:37:31.691Z,18.73
2017-08-22T11:38:46.942Z,18.62
2017-08-22T11:39:32.503Z,18.66
2017-08-22T11:40:32.999Z,18.70
2017-08-22T11:42:26.163Z,18.96
2017-08-22T11:43:26.609Z,18.92
2017-08-22T11:44:27.054Z,18.70
2017-08-22T11:45:27.492Z,18.63
2017-08-22T11:47:21.707Z,18.75
2017-08-22T11:48:22.151Z,18.59
2017-08-22T11:49:22.584Z,18.80
2017-08-22T11:50:23.028Z,18.68
2017-08-22T11:52:16.242Z,18.26
2017-08-22T11:53:16.710Z,18.22
2017-08-22T11:54:17.128Z,18.43
2017-08-22T11:55:17.568Z,18.49
2017-08-22T11:57:51.116Z,18.56
2017-08-22T12:05:18.747Z,18.63
2017-08-22T12:08:31.306Z,18.95
2017-08-22T12:13:17.248Z,18.83
2017-08-22T12:15:11.556Z,18.38
2017-08-22T12:17:08.086Z,18.11
2017-08-22T12:19:39.341Z,17.89
2017-08-22T12:22:17.683Z,18.25
2017-08-22T12:26:19.548Z,17.82
2017-08-22T12:27:19.995Z,17.79
2017-08-22T12:28:20.433Z,17.72
2017-08-22T12:32:07.890Z,18.03
2017-08-22T12:32:47.207Z,18.11
2017-08-22T12:35:24.054Z,18.20
2017-08-22T12:36:21.177Z,18.23
2017-08-22T12:37:21.637Z,18.25
2017-08-22T12:38:22.047Z,18.25
2017-08-22T12:40:15.286Z,18.31
2017-08-22T12:41:15.712Z,18.40
2017-08-22T12:42:16.146Z,18.33
2017-08-22T12:43:16.581Z,18.49
2017-08-22T12:44:17.043Z,18.58
2017-08-22T12:46:10.240Z,18.71
2017-08-22T12:48:14.737Z,19.02
2017-08-22T12:49:56.741Z,18.62
2017-08-22T12:50:57.189Z,18.59
2017-08-22T12:52:00.493Z,18.77
2017-08-22T12:54:03.620Z,19.14
2017-08-22T12:54:52.298Z,18.81
2017-08-22T12:55:52.744Z,18.88
2017-08-22T12:57:46.950Z,19.11
2017-08-22T12:58:47.416Z,18.89
2017-08-22T12:59:47.840Z,19.08
2017-08-22T13:00:51.373Z,19.11
2017-08-22T13:04:15.599Z,19.37
2017-08-22T13:05:16.043Z,19.31
2017-08-22T13:06:16.485Z,19.39
2017-08-22T13:10:57.892Z,19.22
2017-08-22T13:12:16.472Z,18.90
2017-08-22T13:13:17.043Z,18.84
2017-08-22T13:14:17.354Z,18.75
2017-08-22T13:18:18.940Z,18.78
2017-08-22T13:18:44.118Z,18.98
2017-08-22T13:19:44.558Z,19.00
2017-08-22T13:20:45.002Z,19.24
2017-08-22T13:21:45.434Z,19.29
2017-08-22T13:23:38.675Z,19.33
2017-08-22T13:24:39.106Z,19.47
2017-08-22T13:25:39.547Z,19.56
2017-08-22T13:26:39.991Z,19.63
2017-08-22T13:27:40.428Z,19.66
2017-08-22T13:29:33.660Z,19.49
2017-08-22T13:30:34.117Z,19.45
2017-08-22T13:31:34.555Z,19.24
2017-08-22T13:33:27.789Z,19.41
2017-08-22T13:34:28.222Z,19.47
2017-08-22T13:35:28.670Z,19.37
2017-08-22T13:36:29.103Z,19.22
2017-08-22T13:37:29.541Z,19.37
2017-08-22T13:38:29.993Z,19.27
2017-08-22T13:40:38.506Z,19.21
2017-08-22T13:41:24.657Z,19.41
2017-08-22T13:43:18.863Z,19.22
2017-08-22T13:44:19.312Z,19.29
2017-08-22T13:45:19.748Z,19.62
2017-08-22T13:46:20.197Z,19.69
2017-08-22T13:47:20.632Z,19.89
2017-08-22T13:48:21.077Z,19.59
2017-08-22T13:49:21.512Z,19.51
2017-08-22T13:50:21.953Z,19.29
2017-08-22T13:51:22.394Z,19.15
2017-08-22T13:52:22.837Z,19.26
2017-08-22T13:53:23.271Z,19.24
2017-08-22T13:54:23.715Z,19.24
2017-08-22T13:55:24.154Z,19.33
2017-08-22T13:56:24.687Z,19.34
2017-08-22T13:57:25.033Z,19.37
2017-08-22T13:58:25.489Z,19.47
2017-08-22T13:59:25.915Z,19.27
2017-08-22T14:00:26.498Z,19.39
2017-08-22T14:01:26.789Z,19.29
2017-08-22T14:02:27.248Z,19.24
2017-08-22T14:03:27.675Z,19.30
2017-08-22T14:04:28.114Z,19.08
2017-08-22T14:05:28.560Z,19.11
2017-08-22T14:06:28.994Z,19.16
2017-08-22T14:07:36.158Z,19.33
2017-08-22T14:08:29.877Z,19.26
2017-08-22T14:10:24.089Z,19.22
2017-08-22T14:11:24.548Z,19.07
2017-08-22T14:12:24.983Z,19.24
2017-08-22T14:14:18.197Z,19.30
2017-08-22T14:15:18.650Z,19.07
2017-08-22T14:16:19.085Z,19.12
2017-08-22T14:17:19.522Z,19.29
2017-08-22T14:19:12.743Z,19.54
2017-08-22T14:20:13.198Z,19.54
2017-08-22T14:21:13.633Z,19.70
2017-08-22T14:22:14.071Z,19.86
2017-08-22T14:23:14.511Z,19.86
2017-08-22T14:24:14.951Z,19.84
2017-08-22T14:25:15.390Z,19.73
2017-08-22T14:26:15.836Z,19.52
2017-08-22T14:27:16.272Z,19.58
2017-08-22T14:28:16.712Z,19.47
2017-08-22T14:29:17.151Z,19.39
2017-08-22T14:30:17.592Z,19.39
2017-08-22T14:31:18.029Z,19.48
2017-08-22T14:32:18.477Z,19.59
2017-08-22T14:33:18.917Z,19.55
2017-08-22T14:34:19.351Z,19.67
2017-08-22T14:35:19.792Z,19.56
2017-08-22T14:37:13.010Z,19.39
2017-08-22T14:39:06.239Z,19.49
2017-08-22T14:40:59.481Z,19.40
2017-08-22T14:41:59.915Z,19.51
2017-08-22T14:43:00.355Z,19.47
2017-08-22T14:44:00.791Z,19.27
2017-08-22T14:45:01.235Z,19.31
2017-08-22T14:46:01.672Z,19.24
2017-08-22T14:47:02.121Z,19.29
2017-08-22T14:48:02.552Z,19.26
2017-08-22T14:49:55.773Z,19.31
2017-08-22T14:50:56.216Z,19.08
2017-08-22T14:51:56.661Z,19.21
2017-08-22T14:52:57.097Z,19.27
2017-08-22T14:54:50.330Z,19.39
2017-08-22T14:55:50.779Z,19.29
2017-08-22T14:56:51.215Z,19.30
2017-08-22T14:57:51.654Z,19.31
2017-08-22T14:59:45.860Z,19.33
2017-08-22T15:00:46.307Z,19.21
2017-08-22T15:01:46.745Z,19.47
2017-08-22T15:02:47.181Z,19.41
2017-08-22T15:03:47.624Z,19.58
2017-08-22T15:05:40.847Z,19.85
2017-08-22T15:06:41.296Z,19.82
2017-08-22T15:07:41.733Z,19.64
2017-08-22T15:09:34.971Z,19.58
2017-08-22T15:10:35.397Z,19.27
2017-08-22T15:12:28.610Z,19.37
2017-08-22T15:13:29.055Z,19.31
2017-08-22T15:14:29.494Z,19.27
2017-08-22T15:15:29.933Z,19.22
2017-08-22T15:16:30.378Z,19.19
2017-08-22T15:17:30.839Z,19.31
2017-08-22T15:18:31.259Z,19.48
2017-08-22T15:20:25.471Z,19.36
2017-08-22T15:21:40.751Z,19.36
2017-08-22T15:22:27.230Z,19.48
2017-08-22T15:23:26.788Z,19.24
2017-08-22T15:25:20.015Z,19.30
2017-08-22T15:26:20.467Z,19.08
2017-08-22T15:27:20.903Z,19.16
2017-08-22T15:28:21.341Z,19.21
2017-08-22T15:29:21.784Z,19.21
2017-08-22T15:30:22.220Z,19.14
2017-08-22T15:31:22.659Z,19.12
2017-08-22T15:32:23.098Z,19.11
2017-08-22T15:33:44.702Z,18.96
2017-08-22T15:34:23.973Z,18.86
2017-08-22T15:35:24.411Z,18.88
2017-08-22T15:36:24.850Z,18.83
2017-08-22T15:37:25.287Z,18.92
2017-08-22T15:38:25.723Z,18.98
2017-08-22T15:39:26.166Z,19.08
2017-08-22T15:40:26.608Z,19.07
2017-08-22T15:41:27.053Z,18.80
2017-08-22T15:42:27.483Z,18.95
2017-08-22T15:43:27.920Z,18.99
2017-08-22T15:44:28.356Z,18.93
2017-08-22T15:46:21.575Z,18.93
2017-08-22T15:47:22.025Z,18.90
2017-08-22T15:50:16.728Z,18.84
2017-08-22T15:50:56.030Z,18.89
2017-08-22T15:52:49.255Z,18.96
2017-08-22T15:55:22.813Z,19.14
2017-08-22T15:57:56.373Z,18.95
2017-08-22T15:58:56.817Z,19.11
2017-08-22T15:59:57.258Z,19.21
2017-08-22T16:00:57.686Z,19.02
2017-08-22T16:01:58.135Z,19.02
2017-08-22T16:04:51.786Z,18.98
2017-08-22T16:05:52.238Z,19.18
2017-08-22T16:06:52.689Z,19.02
2017-08-22T16:08:45.904Z,18.86
2017-08-22T16:14:26.634Z,18.86
2017-08-22T16:15:27.131Z,18.89
2017-08-22T16:16:27.515Z,19.02
2017-08-22T16:19:01.064Z,18.96
2017-08-22T16:20:02.322Z,19.07
2017-08-22T16:23:14.373Z,19.15
2017-08-22T16:25:40.382Z,19.08
2017-08-22T16:28:36.084Z,18.81
2017-08-22T16:31:20.905Z,18.78
2017-08-22T16:32:20.912Z,18.81
2017-08-22T16:33:13.399Z,19.00
2017-08-22T16:36:05.230Z,18.95
2017-08-22T16:38:49.395Z,18.68
2017-08-22T16:40:12.640Z,18.81
2017-08-22T16:41:11.328Z,18.80
2017-08-22T16:42:11.746Z,18.80
2017-08-22T16:44:05.001Z,18.71
2017-08-22T16:45:05.419Z,18.81
2017-08-22T16:46:05.867Z,18.89
2017-08-22T16:50:32.659Z,18.75
2017-08-22T16:53:06.183Z,18.75
2017-08-22T16:55:11.687Z,18.58
2017-08-22T16:56:53.641Z,18.52
2017-08-22T16:57:54.088Z,18.56
2017-08-22T16:58:54.578Z,18.44
2017-08-22T17:01:19.534Z,18.43
2017-08-22T17:04:15.090Z,18.74
2017-08-22T17:07:46.688Z,18.73
2017-08-22T17:09:34.671Z,18.47
2017-08-22T17:10:49.914Z,18.47
2017-08-22T17:11:35.545Z,18.50
2017-08-22T17:14:27.855Z,18.41
2017-08-22T17:16:08.657Z,18.52
2017-08-22T17:18:01.796Z,18.55
2017-08-22T17:18:57.001Z,18.49
2017-08-22T17:21:11.362Z,18.41
2017-08-22T17:21:53.461Z,18.44
2017-08-22T17:24:24.207Z,18.33
2017-08-22T17:26:30.202Z,18.40
2017-08-22T17:28:52.945Z,18.31
2017-08-22T17:30:08.215Z,18.23
2017-08-22T17:31:00.712Z,18.20
2017-08-22T17:32:48.039Z,18.18
2017-08-22T17:34:09.647Z,18.23
2017-08-22T17:34:51.806Z,18.25
2017-08-22T17:36:50.410Z,18.22
2017-08-22T17:38:36.374Z,18.18